Time;durP1;ratioP1;P1;durP2;ratioP2;P2;SDS_P1;SDS_P2;PMS_P1;PMS_P2;Temp;Humidity;BMP_temperature;BMP_pressure;BME280_temperature;BME280_humidity;BME280_pressure;Samples;Min_cycle;Max_cycle;Signal;HPM_P1;HPM_P2
2022/07/17 00:01:05;;;;;;;7.60;4.70;;;8.70;99.90;;;;;;5054171;28;20051;-27
2022/07/17 00:03:31;;;;;;;9.50;5.88;;;8.80;99.90;;;;;;5054135;28;20036;-27
2022/07/17 00:05:56;;;;;;;8.52;4.43;;;8.80;99.90;;;;;;5054623;28;20467;-27
2022/07/17 00:08:23;;;;;;;7.38;4.90;;;8.90;99.90;;;;;;5055153;28;20041;-27
2022/07/17 00:10:49;;;;;;;18.15;6.85;;;8.70;99.90;;;;;;5053933;28;20546;-27
2022/07/17 00:13:15;;;;;;;17.60;5.85;;;8.70;99.90;;;;;;5037363;28;20135;-28
2022/07/17 00:15:41;;;;;;;10.82;5.15;;;8.70;99.90;;;;;;5054756;28;20076;-26
2022/07/17 00:18:07;;;;;;;10.90;4.80;;;8.60;99.90;;;;;;5055643;28;20060;-27
2022/07/17 00:20:34;;;;;;;6.68;4.97;;;8.60;99.90;;;;;;5053798;28;20049;-26
2022/07/17 00:22:59;;;;;;;11.63;5.90;;;8.50;99.90;;;;;;5054610;28;20088;-26
2022/07/17 00:25:25;;;;;;;11.10;5.13;;;8.50;99.90;;;;;;5054680;28;20052;-26
2022/07/17 00:27:52;;;;;;;8.80;4.50;;;8.50;99.90;;;;;;5054639;28;20037;-26
2022/07/17 00:30:17;;;;;;;7.55;4.75;;;8.50;99.90;;;;;;5054142;28;20426;-28
2022/07/17 00:32:43;;;;;;;11.35;5.60;;;8.50;99.90;;;;;;5055061;28;20045;-27
2022/07/17 00:35:10;;;;;;;9.98;5.57;;;8.50;99.90;;;;;;5054501;28;20049;-27
2022/07/17 00:37:44;;;;;;;9.07;5.18;;;8.40;99.90;;;;;;5054336;28;20045;-26
2022/07/17 00:40:12;;;;;;;13.20;6.03;;;8.50;99.90;;;;;;5054730;28;20462;-26
2022/07/17 00:42:42;;;;;;;10.18;6.45;;;8.50;99.90;;;;;;5054876;28;20048;-27
2022/07/17 00:45:12;;;;;;;9.15;4.60;;;8.50;99.90;;;;;;5054275;28;20049;-27
2022/07/17 00:48:09;;;;;;;13.88;5.70;;;8.50;99.90;;;;;;5054291;28;20041;-26
2022/07/17 00:50:38;;;;;;;8.43;4.03;;;8.50;1.00;;;;;;5051197;28;20068;-27
2022/07/17 00:53:05;;;;;;;9.63;3.97;;;8.50;1.00;;;;;;5053773;28;20052;-27
2022/07/17 00:55:31;;;;;;;7.03;4.03;;;8.50;1.00;;;;;;5054117;28;20045;-27
2022/07/17 00:58:00;;;;;;;11.50;5.30;;;8.60;1.00;;;;;;5054101;28;20042;-27
2022/07/17 01:00:26;;;;;;;9.52;4.95;;;8.40;1.00;;;;;;5054029;28;20048;-28
2022/07/17 01:02:53;;;;;;;9.93;4.68;;;8.40;1.00;;;;;;5055041;28;20040;-26
2022/07/17 01:05:20;;;;;;;10.77;4.72;;;8.40;1.00;;;;;;5054738;28;20068;-26
2022/07/17 01:07:47;;;;;;;9.98;5.57;;;8.40;1.00;;;;;;5054748;28;20100;-26
2022/07/17 01:10:13;;;;;;;9.45;5.07;;;8.30;1.00;;;;;;5053873;28;20084;-26
2022/07/17 01:12:40;;;;;;;12.00;5.57;;;8.40;1.00;;;;;;5055215;28;20063;-26
2022/07/17 01:15:08;;;;;;;9.05;4.93;;;8.30;99.90;;;;;;5053870;28;20489;-27
2022/07/17 01:17:35;;;;;;;9.35;4.85;;;8.30;99.90;;;;;;5053707;28;20095;-26
2022/07/17 01:20:03;;;;;;;13.13;6.15;;;8.40;99.90;;;;;;5053931;28;20110;-27
2022/07/17 01:22:28;;;;;;;12.80;6.43;;;8.10;1.00;;;;;;5053113;28;20070;-26
2022/07/17 01:24:54;;;;;;;10.38;5.93;;;8.30;1.00;;;;;;5053701;28;20044;-26
2022/07/17 01:27:20;;;;;;;11.25;6.50;;;8.30;1.00;;;;;;5053649;28;20040;-27
2022/07/17 01:29:45;;;;;;;12.85;6.90;;;8.30;1.00;;;;;;5053472;28;20056;-26
2022/07/17 01:32:11;;;;;;;12.07;6.20;;;8.30;1.00;;;;;;5053594;28;20055;-26
2022/07/17 01:34:37;;;;;;;5.53;3.75;;;8.30;1.00;;;;;;5054357;28;20046;-26
2022/07/17 01:37:03;;;;;;;4.68;3.25;;;8.20;1.00;;;;;;5054005;28;20132;-28
2022/07/17 01:42:27;;;;;;;7.97;4.65;;;8.00;1.00;;;;;;5041191;28;20048;-26
2022/07/17 01:44:54;;;;;;;9.52;4.88;;;8.00;1.00;;;;;;5052793;28;20041;-26
2022/07/17 01:47:20;;;;;;;11.20;5.93;;;8.00;1.00;;;;;;5053448;28;20045;-26
2022/07/17 01:49:49;;;;;;;8.90;4.93;;;8.10;1.00;;;;;;5053463;28;20418;-26
2022/07/17 01:52:16;;;;;;;7.90;5.07;;;8.10;1.00;;;;;;5053440;28;20053;-26
2022/07/17 01:54:42;;;;;;;10.00;5.13;;;8.00;1.00;;;;;;5050478;28;20495;-27
2022/07/17 01:57:09;;;;;;;12.70;5.55;;;8.00;1.00;;;;;;5052877;28;20099;-26
2022/07/17 01:59:35;;;;;;;10.10;5.80;;;8.10;1.00;;;;;;5053397;28;20091;-27
2022/07/17 02:02:01;;;;;;;15.48;5.97;;;8.00;1.00;;;;;;5053885;28;20053;-27
2022/07/17 02:04:27;;;;;;;12.93;5.90;;;8.00;1.00;;;;;;5053352;28;20491;-26
2022/07/17 02:06:54;;;;;;;6.93;4.75;;;8.00;1.00;;;;;;5055417;28;20092;-27
2022/07/17 02:09:21;;;;;;;16.35;5.22;;;8.00;1.00;;;;;;5053200;28;20044;-26
2022/07/17 02:11:47;;;;;;;7.32;4.10;;;7.90;1.00;;;;;;5053256;28;20128;-26
2022/07/17 02:14:13;;;;;;;8.02;4.20;;;7.90;1.00;;;;;;5053600;28;20132;-26
2022/07/17 02:16:39;;;;;;;7.80;4.20;;;7.90;1.00;;;;;;5054813;28;20048;-27
2022/07/17 02:19:04;;;;;;;9.07;4.50;;;7.80;1.00;;;;;;5055619;28;20398;-27
2022/07/17 02:21:30;;;;;;;10.20;5.40;;;7.80;1.00;;;;;;5056992;28;20049;-26
2022/07/17 02:23:56;;;;;;;9.98;5.07;;;8.00;1.00;;;;;;5057054;28;20087;-27
2022/07/17 02:26:22;;;;;;;9.10;4.60;;;7.80;1.00;;;;;;5056407;28;20051;-26
2022/07/17 02:28:47;;;;;;;9.60;4.65;;;7.80;1.00;;;;;;5055254;28;20060;-26
2022/07/17 02:31:13;;;;;;;9.35;4.72;;;7.80;1.00;;;;;;5056912;28;20493;-26
2022/07/17 02:33:39;;;;;;;9.82;6.25;;;7.90;16.70;;;;;;5055546;28;20145;-26
2022/07/17 02:36:06;;;;;;;24.13;6.15;;;7.90;1.00;;;;;;5056776;28;20129;-26
2022/07/17 02:38:31;;;;;;;7.35;4.75;;;7.90;30.00;;;;;;5057354;28;20048;-26
2022/07/17 02:40:57;;;;;;;12.48;5.88;;;7.90;89.50;;;;;;5056959;28;20045;-28
2022/07/17 02:43:23;;;;;;;10.77;7.10;;;7.90;99.90;;;;;;5056633;28;20498;-26
2022/07/17 02:45:49;;;;;;;11.40;7.07;;;8.00;99.90;;;;;;5056165;28;20045;-26
2022/07/17 02:48:14;;;;;;;14.40;7.50;;;8.10;99.90;;;;;;5056711;28;20041;-26
2022/07/17 02:50:40;;;;;;;15.13;6.75;;;8.20;99.90;;;;;;5057024;28;20048;-27
2022/07/17 02:53:06;;;;;;;12.90;7.30;;;8.20;99.90;;;;;;5055273;28;20045;-27
2022/07/17 02:55:31;;;;;;;17.38;8.27;;;8.20;99.90;;;;;;5057209;28;20045;-27
2022/07/17 02:57:57;;;;;;;21.65;7.80;;;8.10;99.90;;;;;;5056117;28;20549;-26
2022/07/17 03:00:23;;;;;;;11.90;6.15;;;8.10;99.90;;;;;;5056356;28;20057;-26
2022/07/17 03:02:49;;;;;;;12.55;6.10;;;8.00;99.90;;;;;;5055055;28;20558;-26
2022/07/17 03:05:16;;;;;;;11.30;7.40;;;7.90;99.90;;;;;;5055923;28;20055;-27
2022/07/17 03:07:43;;;;;;;16.02;6.30;;;8.00;99.90;;;;;;5055894;28;20037;-26
2022/07/17 03:10:09;;;;;;;7.88;5.07;;;8.00;99.90;;;;;;5056106;28;20092;-26
2022/07/17 03:12:35;;;;;;;10.20;4.60;;;7.90;96.50;;;;;;5056110;28;20076;-27
2022/07/17 03:15:01;;;;;;;5.35;3.55;;;7.80;66.40;;;;;;5056318;28;20068;-27
2022/07/17 03:17:27;;;;;;;4.00;2.80;;;7.70;5.00;;;;;;5056098;28;20141;-26
2022/07/17 03:19:53;;;;;;;7.60;3.33;;;7.60;1.00;;;;;;5055374;28;20057;-26
2022/07/17 03:22:18;;;;;;;4.65;2.67;;;7.50;1.00;;;;;;5056188;28;20495;-26
2022/07/17 03:24:44;;;;;;;3.85;3.10;;;7.40;1.00;;;;;;5055845;28;20053;-27
2022/07/17 03:27:10;;;;;;;4.22;3.80;;;7.30;1.00;;;;;;5054308;28;20052;-26
2022/07/17 03:29:36;;;;;;;7.35;3.60;;;7.30;1.00;;;;;;5055108;28;20048;-26
2022/07/17 03:32:01;;;;;;;11.55;5.20;;;7.30;1.00;;;;;;5055716;28;20189;-26
2022/07/17 03:34:27;;;;;;;13.32;7.25;;;7.40;49.20;;;;;;5055947;28;20049;-27
2022/07/17 03:36:53;;;;;;;12.02;7.90;;;7.50;99.90;;;;;;5055584;28;20040;-27
2022/07/17 03:39:18;;;;;;;16.00;8.48;;;7.60;99.90;;;;;;5055553;28;20542;-26
2022/07/17 03:41:44;;;;;;;12.25;8.70;;;7.70;99.90;;;;;;5055537;28;20056;-26
2022/07/17 03:44:10;;;;;;;13.73;7.70;;;7.80;99.90;;;;;;5055476;28;20475;-26
2022/07/17 03:46:35;;;;;;;11.93;7.15;;;7.90;99.90;;;;;;5054734;28;20399;-27
2022/07/17 03:49:01;;;;;;;16.27;8.02;;;7.90;99.90;;;;;;5055868;28;20048;-27
2022/07/17 03:51:27;;;;;;;13.90;7.57;;;8.10;99.90;;;;;;5055400;28;20163;-27
2022/07/17 03:53:53;;;;;;;13.70;8.13;;;8.10;99.90;;;;;;5055293;28;20045;-26
2022/07/17 03:56:19;;;;;;;12.90;7.47;;;8.30;99.90;;;;;;5055704;28;20120;-26
2022/07/17 03:58:45;;;;;;;12.68;6.72;;;8.40;99.90;;;;;;5055241;28;20088;-26
2022/07/17 04:01:10;;;;;;;12.80;7.28;;;8.50;99.90;;;;;;5055376;28;20045;-28
2022/07/17 04:03:36;;;;;;;15.65;7.47;;;8.60;99.90;;;;;;5055458;28;20482;-26
2022/07/17 04:06:02;;;;;;;11.15;7.60;;;8.70;99.90;;;;;;5055669;28;20367;-26
2022/07/17 04:08:28;;;;;;;8.52;6.75;;;8.80;1.00;;;;;;5055044;28;20044;-26
2022/07/17 04:10:53;;;;;;;14.88;7.35;;;8.90;99.90;;;;;;5055587;28;20056;-26
2022/07/17 04:13:19;;;;;;;8.60;6.05;;;9.00;1.00;;;;;;5053783;28;20040;-26
2022/07/17 04:15:57;;;;;;;11.68;5.65;;;9.10;1.00;;;;;;5055146;28;20048;-27
2022/07/17 04:18:25;;;;;;;13.10;6.80;;;9.20;1.00;;;;;;5055114;28;20045;-28
2022/07/17 04:20:53;;;;;;;10.50;6.57;;;9.30;1.00;;;;;;5054735;28;20494;-26
2022/07/17 04:23:19;;;;;;;8.90;6.00;;;9.40;1.00;;;;;;5054804;28;20056;-27
2022/07/17 04:25:44;;;;;;;12.15;6.10;;;9.50;1.00;;;;;;5054691;28;20479;-26
2022/07/17 04:28:11;;;;;;;9.63;6.00;;;9.60;1.00;;;;;;5053483;28;20041;-27
2022/07/17 04:30:37;;;;;;;9.95;5.03;;;9.70;1.00;;;;;;5054595;28;20045;-26
2022/07/17 04:33:03;;;;;;;6.32;5.00;;;9.80;1.00;;;;;;5054683;28;20040;-26
2022/07/17 04:35:29;;;;;;;13.43;5.65;;;9.90;1.00;;;;;;5054500;28;20052;-26
2022/07/17 04:37:55;;;;;;;16.48;6.55;;;9.90;1.00;;;;;;5053197;28;20130;-26
2022/07/17 04:40:21;;;;;;;12.15;5.80;;;10.00;1.00;;;;;;5054665;28;20127;-26
2022/07/17 04:42:46;;;;;;;10.23;5.00;;;10.10;1.00;;;;;;5062481;28;20115;-26
2022/07/17 04:45:15;;;;;;;10.63;5.65;;;10.10;99.90;;;;;;5073134;28;20052;-28
2022/07/17 04:47:41;;;;;;;9.57;5.75;;;10.20;99.90;;;;;;5072709;28;20040;-28
2022/07/17 04:50:08;;;;;;;7.78;5.20;;;10.30;99.90;;;;;;5074212;28;20395;-27
2022/07/17 04:52:34;;;;;;;11.20;5.28;;;10.40;99.90;;;;;;5069865;28;20041;-26
2022/07/17 04:55:00;;;;;;;9.52;5.35;;;10.40;99.90;;;;;;5054197;28;20558;-26
2022/07/17 04:57:26;;;;;;;11.52;5.68;;;10.50;99.90;;;;;;5054065;28;20102;-27
2022/07/17 04:59:52;;;;;;;9.25;5.13;;;10.60;99.90;;;;;;5054093;28;20132;-26
2022/07/17 05:02:17;;;;;;;10.27;5.20;;;10.70;99.90;;;;;;5054058;28;20041;-26
2022/07/17 05:04:43;;;;;;;9.98;4.68;;;10.80;99.90;;;;;;5054264;28;20045;-27
2022/07/17 05:07:09;;;;;;;8.25;4.32;;;10.80;99.90;;;;;;5054240;28;20493;-27
2022/07/17 05:09:34;;;;;;;9.27;4.03;;;10.90;99.90;;;;;;5053904;28;20049;-27
2022/07/17 05:12:00;;;;;;;12.32;4.75;;;11.00;99.90;;;;;;5054469;28;20041;-26
2022/07/17 05:14:26;;;;;;;8.05;5.10;;;11.10;99.90;;;;;;5054150;28;20056;-26
2022/07/17 05:16:52;;;;;;;18.33;4.63;;;11.10;99.90;;;;;;5054309;28;20045;-26
2022/07/17 05:19:18;;;;;;;10.85;4.65;;;11.20;99.90;;;;;;5053534;28;20063;-26
2022/07/17 05:21:43;;;;;;;8.35;4.22;;;11.30;99.90;;;;;;5053369;28;20132;-27
2022/07/17 05:24:09;;;;;;;8.25;3.88;;;11.40;99.90;;;;;;5053770;28;20041;-27
2022/07/17 05:26:35;;;;;;;8.95;3.72;;;11.50;99.90;;;;;;5054231;28;20111;-27
2022/07/17 05:29:00;;;;;;;9.35;3.30;;;11.60;99.90;;;;;;5053618;28;20087;-26
2022/07/17 05:31:26;;;;;;;6.78;3.20;;;11.70;99.90;;;;;;5052447;28;20053;-27
2022/07/17 05:33:52;;;;;;;6.30;3.10;;;11.80;99.90;;;;;;5054121;28;20044;-27
2022/07/17 05:36:18;;;;;;;9.18;3.53;;;12.00;99.90;;;;;;5052612;28;20045;-26
2022/07/17 05:38:44;;;;;;;9.30;3.65;;;12.20;99.90;;;;;;5054162;28;20102;-28
2022/07/17 05:41:09;;;;;;;6.15;3.13;;;12.40;76.60;;;;;;5052933;28;20045;-27
2022/07/17 05:43:35;;;;;;;8.88;3.50;;;12.50;1.00;;;;;;5053550;28;20041;-27
2022/07/17 05:46:01;;;;;;;5.95;3.65;;;12.80;1.00;;;;;;5053357;28;20101;-28
2022/07/17 05:48:26;;;;;;;5.55;3.00;;;13.30;66.20;;;;;;5054024;28;20048;-28
2022/07/17 05:50:52;;;;;;;8.63;3.50;;;13.60;1.00;;;;;;5052379;28;20049;-27
2022/07/17 05:53:19;;;;;;;13.90;3.22;;;13.90;99.90;;;;;;5057607;28;20193;-27
2022/07/17 05:55:44;;;;;;;8.63;3.22;;;14.20;99.90;;;;;;5056947;28;20102;-27
2022/07/17 05:58:10;;;;;;;12.48;2.80;;;14.70;99.90;;;;;;5057434;28;20037;-27
2022/07/17 06:00:37;;;;;;;8.32;2.80;;;15.00;1.00;;;;;;5057493;28;20045;-27
2022/07/17 06:03:03;;;;;;;10.90;2.83;;;15.20;1.00;;;;;;5058253;28;20049;-27
2022/07/17 06:05:29;;;;;;;5.82;2.10;;;15.80;99.90;;;;;;5058172;28;20060;-27
2022/07/17 06:07:56;;;;;;;10.35;2.50;;;16.30;1.00;;;;;;5057452;28;20395;-27
2022/07/17 06:10:23;;;;;;;7.70;3.05;;;16.80;1.00;;;;;;5057306;28;20053;-27
2022/07/17 06:12:49;;;;;;;7.93;2.40;;;17.40;99.90;;;;;;5057244;28;20048;-27
2022/07/17 06:15:15;;;;;;;11.40;2.10;;;17.70;99.90;;;;;;5056224;28;20096;-27
2022/07/17 06:17:41;;;;;;;6.30;1.58;;;17.90;99.90;;;;;;5056977;28;20479;-27
2022/07/17 06:20:08;;;;;;;7.10;1.27;;;17.90;99.90;;;;;;5057025;28;20060;-27
2022/07/17 06:22:34;;;;;;;8.65;1.70;;;17.90;1.00;;;;;;5057297;28;20080;-27
2022/07/17 06:24:59;;;;;;;3.70;1.65;;;17.90;1.00;;;;;;5055801;28;20081;-27
2022/07/17 06:27:25;;;;;;;6.57;1.00;;;18.30;1.00;;;;;;5056824;28;20037;-27
2022/07/17 06:29:51;;;;;;;5.18;1.00;;;18.40;1.00;;;;;;5056914;28;20045;-27
2022/07/17 06:32:17;;;;;;;8.50;1.33;;;18.30;99.90;;;;;;5039849;28;20052;-27
2022/07/17 06:34:43;;;;;;;6.50;1.00;;;17.80;99.90;;;;;;5057636;28;20041;-27
2022/07/17 06:37:08;;;;;;;4.72;1.30;;;17.40;1.00;;;;;;5056725;28;20509;-27
2022/07/17 06:39:34;;;;;;;10.65;1.58;;;17.00;1.00;;;;;;5058846;28;20091;-27
2022/07/17 06:42:00;;;;;;;6.22;0.80;;;16.70;99.90;;;;;;5056555;28;20502;-27
2022/07/17 06:44:26;;;;;;;4.68;0.93;;;16.50;99.90;;;;;;5056682;28;20041;-27
2022/07/17 06:46:52;;;;;;;3.90;0.90;;;16.20;99.90;;;;;;5056607;28;20390;-27
2022/07/17 06:49:17;;;;;;;3.70;1.00;;;16.00;99.90;;;;;;5056021;28;20041;-27
2022/07/17 06:51:45;;;;;;;12.18;1.38;;;15.90;99.90;;;;;;5055366;28;20048;-27
2022/07/17 06:54:12;;;;;;;6.22;1.00;;;15.80;99.90;;;;;;5056653;28;20470;-27
2022/07/17 06:56:38;;;;;;;5.03;1.05;;;15.80;99.90;;;;;;5056875;28;20041;-27
2022/07/17 06:59:06;;;;;;;5.15;0.95;;;15.70;99.90;;;;;;5058000;28;20048;-27
2022/07/17 07:01:36;;;;;;;5.65;0.90;;;15.70;99.90;;;;;;5069800;28;20486;-27
2022/07/17 07:04:03;;;;;;;7.75;1.75;;;15.60;99.90;;;;;;5075951;28;20422;-27
2022/07/17 07:06:29;;;;;;;8.88;1.42;;;15.60;99.90;;;;;;5076241;28;20627;-27
2022/07/17 07:08:55;;;;;;;8.32;1.42;;;15.60;99.90;;;;;;5066849;28;20064;-27
2022/07/17 07:11:21;;;;;;;6.18;1.10;;;15.60;99.90;;;;;;5073519;28;20482;-26
2022/07/17 07:13:47;;;;;;;6.88;1.50;;;15.70;99.90;;;;;;5076733;28;20060;-27
2022/07/17 07:16:12;;;;;;;7.22;2.05;;;15.80;99.90;;;;;;5075008;28;20052;-27
2022/07/17 07:18:38;;;;;;;7.15;1.27;;;15.90;99.90;;;;;;5076043;28;20123;-27
2022/07/17 07:21:04;;;;;;;3.97;1.25;;;16.10;99.90;;;;;;5061933;28;20131;-27
2022/07/17 07:23:30;;;;;;;9.32;1.42;;;16.20;99.90;;;;;;5055849;28;20060;-27
2022/07/17 07:25:55;;;;;;;10.27;1.55;;;16.30;99.90;;;;;;5055898;28;20398;-27
2022/07/17 07:28:21;;;;;;;9.23;1.60;;;16.50;99.90;;;;;;5056642;28;20040;-27
2022/07/17 07:30:47;;;;;;;8.15;1.65;;;16.60;99.90;;;;;;5055371;28;20537;-27
2022/07/17 07:33:13;;;;;;;6.82;1.13;;;16.70;99.90;;;;;;5055729;28;20049;-27
2022/07/17 07:35:39;;;;;;;9.48;1.60;;;16.80;99.90;;;;;;5055706;28;20155;-28
2022/07/17 07:38:04;;;;;;;7.70;1.15;;;16.90;14.00;;;;;;5055991;28;20087;-27
2022/07/17 07:40:30;;;;;;;4.00;1.10;;;16.90;1.00;;;;;;5060896;28;20033;-27
2022/07/17 07:42:57;;;;;;;6.70;0.93;;;16.90;1.00;;;;;;5060154;28;20479;-27
2022/07/17 07:45:23;;;;;;;3.60;0.90;;;16.90;1.00;;;;;;5068007;28;20048;-27
2022/07/17 07:47:50;;;;;;;6.85;1.13;;;16.90;1.00;;;;;;5062029;28;20076;-27
2022/07/17 07:50:17;;;;;;;6.53;0.85;;;17.00;1.00;;;;;;5074566;28;20056;-27
2022/07/17 07:52:43;;;;;;;8.55;1.48;;;17.00;1.00;;;;;;5066548;28;20379;-27
2022/07/17 07:55:11;;;;;;;9.88;1.10;;;17.00;1.00;;;;;;5055878;28;20056;-27
2022/07/17 07:57:37;;;;;;;4.32;0.90;;;17.10;1.00;;;;;;5055788;28;20359;-27
2022/07/17 08:00:04;;;;;;;6.93;1.35;;;17.10;1.00;;;;;;5056022;28;20048;-27
2022/07/17 08:02:30;;;;;;;4.28;0.85;;;17.00;99.90;;;;;;5056012;28;20036;-27
2022/07/17 08:04:56;;;;;;;6.55;1.00;;;17.00;1.00;;;;;;5064643;28;20355;-27
2022/07/17 08:07:22;;;;;;;8.68;1.02;;;17.50;1.00;;;;;;5074200;28;20397;-27
2022/07/17 08:09:48;;;;;;;4.80;1.88;;;18.40;99.90;;;;;;5075000;28;20067;-28
2022/07/17 08:12:14;;;;;;;3.90;0.80;;;19.00;2.70;;;;;;5074982;28;20055;-27
2022/07/17 08:14:40;;;;;;;6.70;0.90;;;19.50;1.00;;;;;;5074351;28;20044;-27
2022/07/17 08:17:05;;;;;;;5.25;1.10;;;19.90;99.90;;;;;;5075329;28;20063;-27
2022/07/17 08:19:31;;;;;;;4.88;0.70;;;20.00;99.90;;;;;;5074583;28;20510;-28
2022/07/17 08:21:57;;;;;;;6.47;1.13;;;20.30;1.00;;;;;;5074671;28;20044;-27
2022/07/17 08:24:22;;;;;;;5.10;1.00;;;20.60;1.00;;;;;;5073359;28;20044;-27
2022/07/17 08:26:48;;;;;;;4.65;0.95;;;20.90;1.00;;;;;;5074691;28;20040;-27
2022/07/17 08:29:15;;;;;;;5.55;1.23;;;21.00;99.90;;;;;;5075234;28;20432;-28
2022/07/17 08:31:41;;;;;;;6.28;1.08;;;21.10;99.90;;;;;;5074546;28;20086;-27
2022/07/17 08:34:07;;;;;;;5.78;0.98;;;21.10;99.90;;;;;;5074519;28;20048;-27
2022/07/17 08:36:33;;;;;;;3.33;0.90;;;21.10;99.90;;;;;;5073392;28;20052;-27
2022/07/17 08:38:59;;;;;;;7.20;1.48;;;21.20;99.90;;;;;;5073208;28;20048;-27
2022/07/17 08:41:26;;;;;;;6.35;0.85;;;20.90;99.90;;;;;;5064837;28;20040;-27
2022/07/17 08:43:54;;;;;;;4.15;0.70;;;20.90;99.90;;;;;;5056223;28;20045;-28
2022/07/17 08:46:24;;;;;;;4.25;0.80;;;21.00;99.90;;;;;;5062210;28;20048;-27
2022/07/17 08:48:58;;;;;;;4.20;0.70;;;21.00;99.90;;;;;;5050564;28;20045;-28
2022/07/17 08:51:26;;;;;;;3.75;0.90;;;20.90;1.00;;;;;;5072749;28;20063;-27
2022/07/17 08:53:52;;;;;;;6.10;1.08;;;21.00;90.60;;;;;;5054255;28;20052;-27
2022/07/17 08:56:18;;;;;;;6.05;1.45;;;21.30;80.10;;;;;;5054319;28;20448;-27
2022/07/17 08:58:45;;;;;;;5.50;0.85;;;21.50;99.90;;;;;;5066245;28;20080;-27
2022/07/17 09:01:10;;;;;;;7.65;0.82;;;21.90;94.20;;;;;;5053904;28;20049;-27
2022/07/17 09:03:36;;;;;;;7.15;1.00;;;22.20;1.00;;;;;;5053963;28;20041;-27
2022/07/17 09:06:03;;;;;;;5.80;0.85;;;21.80;1.00;;;;;;5065867;28;20044;-27
2022/07/17 09:08:32;;;;;;;5.38;0.73;;;21.60;1.00;;;;;;5073990;28;20058;-27
2022/07/17 09:10:58;;;;;;;6.68;1.00;;;21.70;1.00;;;;;;5073915;28;20049;-27
2022/07/17 09:13:26;;;;;;;4.85;1.20;;;22.00;1.00;;;;;;5067798;28;20430;-27
2022/07/17 09:16:13;;;;;;;3.33;0.88;;;22.20;1.00;;;;;;5065499;28;20505;-27
2022/07/17 09:18:46;;;;;;;3.38;0.65;;;22.40;1.00;;;;;;5053855;28;20095;-27
2022/07/17 09:21:24;;;;;;;6.03;2.35;;;22.30;26.10;;;;;;5053226;28;20057;-27
2022/07/17 09:24:00;;;;;;;4.43;0.60;;;22.30;1.00;;;;;;5053743;28;20091;-27
2022/07/17 09:26:26;;;;;;;4.57;1.02;;;22.30;1.00;;;;;;5052851;28;20099;-27
2022/07/17 09:28:52;;;;;;;6.28;1.40;;;22.40;30.90;;;;;;5053246;28;20546;-28
2022/07/17 09:31:29;;;;;;;4.97;2.22;;;22.40;68.10;;;;;;5056584;28;20129;-27
2022/07/17 09:33:56;;;;;;;2.65;0.82;;;23.30;99.90;;;;;;5052731;28;20045;-27
2022/07/17 09:36:22;;;;;;;3.30;0.70;;;23.80;99.90;;;;;;5053442;28;20048;-28
2022/07/17 09:38:52;;;;;;;4.78;1.00;;;23.50;99.90;;;;;;5053612;28;20120;-27
2022/07/17 09:41:20;;;;;;;1.80;0.70;;;23.30;99.90;;;;;;5053537;28;20049;-27
2022/07/17 09:43:50;;;;;;;5.32;0.77;;;23.90;99.90;;;;;;5054107;28;20472;-27
2022/07/17 09:46:20;;;;;;;9.30;1.63;;;24.10;99.90;;;;;;5053601;28;20095;-27
2022/07/17 09:48:51;;;;;;;3.85;1.10;;;24.10;99.90;;;;;;5053007;28;20044;-29
2022/07/17 09:51:26;;;;;;;4.00;1.08;;;24.70;99.90;;;;;;5065409;28;20092;-27
2022/07/17 09:53:54;;;;;;;3.67;0.80;;;24.80;99.90;;;;;;5053810;28;20548;-27
2022/07/17 09:56:21;;;;;;;5.45;0.88;;;24.90;99.90;;;;;;5066766;28;20230;-28
2022/07/17 09:58:56;;;;;;;7.18;1.10;;;24.30;99.90;;;;;;5066486;28;20502;-28
2022/07/17 10:01:22;;;;;;;3.55;1.10;;;23.80;99.90;;;;;;5064142;28;20403;-27
2022/07/17 10:03:50;;;;;;;2.15;1.10;;;23.80;99.90;;;;;;5053356;28;20037;-27
2022/07/17 10:06:15;;;;;;;4.70;1.60;;;24.00;99.90;;;;;;5065286;28;20127;-28
2022/07/17 10:08:41;;;;;;;4.65;1.00;;;23.80;99.90;;;;;;5073322;28;20088;-27
2022/07/17 10:11:09;;;;;;;2.88;1.00;;;24.20;99.90;;;;;;5073399;28;20070;-27
2022/07/17 10:13:46;;;;;;;7.53;1.02;;;24.40;99.90;;;;;;5069972;28;20072;-27
2022/07/17 10:16:13;;;;;;;6.88;0.90;;;24.70;99.90;;;;;;5060128;28;20040;-28
2022/07/17 10:18:41;;;;;;;3.50;1.17;;;24.80;99.90;;;;;;5072132;28;20049;-27
2022/07/17 10:21:13;;;;;;;1.80;0.70;;;24.30;1.00;;;;;;5057416;28;20049;-27
2022/07/17 10:23:39;;;;;;;2.28;0.95;;;24.50;1.00;;;;;;5053267;28;20051;-27
2022/07/17 10:26:05;;;;;;;4.03;1.20;;;24.50;1.00;;;;;;5052823;28;20398;-28
2022/07/17 10:28:41;;;;;;;2.78;1.00;;;24.80;1.00;;;;;;5051954;28;20127;-28
2022/07/17 10:31:08;;;;;;;3.72;1.25;;;24.90;1.00;;;;;;5054545;28;20041;-29
2022/07/17 10:33:34;;;;;;;3.03;0.93;;;25.30;1.00;;;;;;5064607;28;20070;-27
2022/07/17 10:36:00;;;;;;;5.07;1.20;;;25.70;1.00;;;;;;5053647;28;20123;-27
2022/07/17 10:38:27;;;;;;;5.05;1.08;;;26.00;1.00;;;;;;5055173;28;20052;-29
2022/07/17 10:41:03;;;;;;;4.13;1.00;;;26.20;1.00;;;;;;5056708;28;20049;-27
2022/07/17 10:43:43;;;;;;;2.13;0.70;;;26.50;1.00;;;;;;5056710;28;20045;-28
2022/07/17 10:46:08;;;;;;;5.38;0.90;;;27.00;1.00;;;;;;5055767;28;20534;-27
2022/07/17 10:48:34;;;;;;;7.68;0.95;;;26.50;1.00;;;;;;5039660;28;20143;-28
2022/07/17 10:51:00;;;;;;;2.65;1.00;;;26.70;1.00;;;;;;5056562;28;20048;-27
2022/07/17 10:53:31;;;;;;;5.57;0.98;;;26.10;1.00;;;;;;5056468;28;20052;-28
2022/07/17 10:56:08;;;;;;;4.00;1.00;;;25.50;1.00;;;;;;5055642;28;20376;-28
2022/07/17 10:58:37;;;;;;;3.83;0.90;;;25.20;1.00;;;;;;5059592;28;20542;-28
2022/07/17 11:01:12;;;;;;;3.92;0.90;;;25.60;1.00;;;;;;5065099;28;20107;-28
2022/07/17 11:03:49;;;;;;;3.60;0.95;;;25.70;1.00;;;;;;5065005;28;20399;-28
2022/07/17 11:06:31;;;;;;;6.13;1.42;;;25.90;1.00;;;;;;5071880;28;20505;-27
2022/07/17 11:09:00;;;;;;;4.78;1.33;;;26.00;1.00;;;;;;5061056;28;20048;-28
2022/07/17 11:11:39;;;;;;;5.40;1.05;;;26.10;1.00;;;;;;5054904;28;20055;-29
2022/07/17 11:14:18;;;;;;;7.07;0.82;;;26.60;1.00;;;;;;5055725;28;20079;-28
2022/07/17 11:17:01;;;;;;;3.33;0.93;;;26.60;1.00;;;;;;5056033;28;20033;-28
2022/07/17 11:19:38;;;;;;;1.48;0.80;;;27.10;1.00;;;;;;5063890;28;20398;-28
2022/07/17 11:22:07;;;;;;;4.57;1.20;;;27.70;1.00;;;;;;5058861;28;20494;-28
2022/07/17 11:24:44;;;;;;;3.42;1.40;;;28.10;1.00;;;;;;5062501;28;20411;-28
2022/07/17 11:27:20;;;;;;;8.85;1.45;;;27.60;1.00;;;;;;5075911;28;20041;-28
2022/07/17 11:29:47;;;;;;;2.75;0.82;;;27.10;1.00;;;;;;5062097;28;20040;-28
2022/07/17 11:32:14;;;;;;;3.70;1.15;;;27.10;1.00;;;;;;5058799;28;20049;-28
2022/07/17 11:34:40;;;;;;;2.67;1.08;;;26.60;1.00;;;;;;5040106;28;20490;-28
2022/07/17 11:37:08;;;;;;;2.60;0.90;;;27.30;1.00;;;;;;5075395;28;20052;-27
2022/07/17 11:39:42;;;;;;;2.30;0.98;;;27.60;1.00;;;;;;5074954;28;20056;-28
2022/07/17 11:42:10;;;;;;;2.45;0.90;;;27.80;1.00;;;;;;5069881;28;20083;-28
2022/07/17 11:44:36;;;;;;;3.15;1.15;;;28.30;1.00;;;;;;5061021;28;20037;-28
2022/07/17 11:47:02;;;;;;;3.53;0.90;;;28.00;1.00;;;;;;5063115;28;20167;-28
2022/07/17 11:49:31;;;;;;;2.92;1.23;;;28.20;1.00;;;;;;5074492;28;20410;-28
2022/07/17 11:52:08;;;;;;;3.53;1.08;;;28.20;1.00;;;;;;5075444;28;20047;-28
2022/07/17 11:54:44;;;;;;;4.68;1.13;;;28.00;1.00;;;;;;5070291;28;20045;-29
2022/07/17 11:57:09;;;;;;;3.42;0.80;;;27.30;1.00;;;;;;5056160;28;20508;-28
2022/07/17 11:59:35;;;;;;;2.30;1.13;;;27.00;1.00;;;;;;5055288;28;20132;-28
2022/07/17 12:02:29;;;;;;;3.17;0.80;;;27.00;1.00;;;;;;5055024;28;20120;-28
2022/07/17 12:04:57;;;;;;;2.05;1.30;;;27.10;1.00;;;;;;5072540;28;20067;-29
2022/07/17 12:07:39;;;;;;;4.22;1.08;;;27.30;1.00;;;;;;5057063;28;20037;-28
2022/07/17 12:10:14;;;;;;;2.40;1.27;;;27.50;1.00;;;;;;5055152;28;20131;-28
2022/07/17 12:12:40;;;;;;;3.78;1.30;;;28.40;1.00;;;;;;5055009;28;20128;-28
2022/07/17 12:15:06;;;;;;;3.88;1.35;;;28.80;1.00;;;;;;5054963;28;20063;-28
2022/07/17 12:17:39;;;;;;;2.50;1.25;;;29.20;1.00;;;;;;5053749;28;20112;-30
2022/07/17 12:20:07;;;;;;;3.22;1.10;;;29.80;1.00;;;;;;5067728;28;20057;-28
2022/07/17 12:22:47;;;;;;;3.13;1.42;;;30.00;1.00;;;;;;5058492;28;20123;-28
2022/07/17 12:25:23;;;;;;;2.17;1.20;;;29.60;1.00;;;;;;5060258;28;20041;-26
2022/07/17 12:27:49;;;;;;;2.92;1.27;;;28.60;1.00;;;;;;5069609;28;20051;-27
2022/07/17 12:30:15;;;;;;;2.83;1.30;;;28.40;1.00;;;;;;5054669;28;20045;-26
2022/07/17 12:32:41;;;;;;;3.17;1.70;;;27.60;1.00;;;;;;5054606;28;20045;-27
2022/07/17 12:35:07;;;;;;;3.42;1.50;;;27.20;1.00;;;;;;5054469;28;20048;-27
2022/07/17 12:37:33;;;;;;;2.85;1.60;;;26.80;1.00;;;;;;5053397;28;20078;-27
2022/07/17 12:39:59;;;;;;;4.10;2.20;;;26.80;1.00;;;;;;5054918;28;20045;-28
2022/07/17 12:42:25;;;;;;;2.63;1.85;;;27.00;1.00;;;;;;5055002;28;20132;-27
2022/07/17 12:44:50;;;;;;;2.97;1.67;;;27.60;1.00;;;;;;5053418;28;20049;-27
2022/07/17 12:47:16;;;;;;;4.13;2.47;;;28.30;1.00;;;;;;5053151;28;20041;-27
2022/07/17 12:49:42;;;;;;;3.25;1.77;;;28.90;1.00;;;;;;5055319;28;20041;-28
2022/07/17 12:52:08;;;;;;;2.80;1.75;;;28.80;1.00;;;;;;5054275;28;20049;-27
2022/07/17 12:54:33;;;;;;;7.72;1.95;;;28.20;1.00;;;;;;5054191;28;20383;-28
2022/07/17 12:56:59;;;;;;;2.97;1.70;;;27.60;1.00;;;;;;5054046;28;20052;-28